createdAt,value
2023-01-15T00:02:42.867Z,723.90
2023-01-15T00:05:46.274Z,753.85
2023-01-15T00:08:51.043Z,754.95
2023-01-15T00:11:55.126Z,668.55
2023-01-15T00:14:59.963Z,695.63
2023-01-15T00:18:03.632Z,664.65
2023-01-15T00:21:08.865Z,649.50
2023-01-15T00:24:29.883Z,745.05
2023-01-15T00:27:44.237Z,643.88
2023-01-15T00:30:49.170Z,667.25
2023-01-15T00:33:52.557Z,639.58
2023-01-15T00:36:56.212Z,716.72
2023-01-15T00:39:59.547Z,726.15
2023-01-15T00:43:02.929Z,663.38
2023-01-15T00:46:09.536Z,691.58
2023-01-15T00:49:13.798Z,688.70
2023-01-15T00:52:17.587Z,700.25
2023-01-15T00:55:21.402Z,692.03
2023-01-15T00:58:24.900Z,761.95
2023-01-15T01:01:29.942Z,668.70
2023-01-15T01:04:33.490Z,693.20
2023-01-15T01:07:36.914Z,678.22
2023-01-15T01:10:40.281Z,681.60
2023-01-15T01:13:44.326Z,553.40
2023-01-15T01:16:49.091Z,496.48
2023-01-15T01:19:52.380Z,457.90
2023-01-15T01:22:55.929Z,611.75
2023-01-15T01:25:59.420Z,445.65
2023-01-15T01:29:02.862Z,537.33
2023-01-15T01:32:07.740Z,516.05
2023-01-15T01:35:11.780Z,705.90
2023-01-15T01:38:15.084Z,532.35
2023-01-15T01:41:19.079Z,565.78
2023-01-15T01:45:00.876Z,660.95
2023-01-15T01:48:08.352Z,532.17
2023-01-15T01:51:12.324Z,628.42
2023-01-15T01:54:21.004Z,686.65
2023-01-15T01:57:25.348Z,612.67
2023-01-15T02:00:29.731Z,574.40
2023-01-15T02:03:38.271Z,644.45
2023-01-15T02:06:43.741Z,643.83
2023-01-15T02:09:47.074Z,459.13
2023-01-15T02:12:57.840Z,639.80
2023-01-15T02:16:11.156Z,464.48
2023-01-15T02:19:29.303Z,504.25
2023-01-15T02:22:45.145Z,613.20
2023-01-15T02:26:09.434Z,482.52
2023-01-15T02:29:23.845Z,518.53
2023-01-15T02:32:36.364Z,474.73
2023-01-15T02:35:45.179Z,549.70
2023-01-15T02:38:52.338Z,459.60
2023-01-15T02:41:58.289Z,565.00
2023-01-15T02:45:10.288Z,560.78
2023-01-15T02:48:16.473Z,516.35
2023-01-15T02:51:24.023Z,557.25
2023-01-15T02:54:33.068Z,625.47
2023-01-15T02:57:40.112Z,591.93
2023-01-15T03:04:18.609Z,473.02
2023-01-15T03:07:26.452Z,704.28
2023-01-15T03:10:39.309Z,396.83
2023-01-15T03:13:48.686Z,563.75
2023-01-15T03:16:56.475Z,417.37
2023-01-15T03:20:08.021Z,536.50
2023-01-15T03:23:15.329Z,686.85
2023-01-15T03:26:18.650Z,445.63
2023-01-15T03:29:23.505Z,632.53
2023-01-15T03:32:31.282Z,439.60
2023-01-15T03:35:50.090Z,429.80
2023-01-15T03:39:07.167Z,467.88
2023-01-15T03:42:44.947Z,612.38
2023-01-15T03:45:54.425Z,408.08
2023-01-15T03:49:02.995Z,443.55
2023-01-15T03:52:17.624Z,458.70
2023-01-15T03:55:25.769Z,433.48
2023-01-15T03:58:42.613Z,471.75
2023-01-15T04:01:51.547Z,582.13
2023-01-15T04:04:59.911Z,493.38
2023-01-15T04:08:07.411Z,622.47
2023-01-15T04:11:11.982Z,464.95
2023-01-15T04:14:23.200Z,470.50
2023-01-15T04:17:30.354Z,419.83
2023-01-15T04:20:34.607Z,414.88
2023-01-15T04:23:39.313Z,593.47
2023-01-15T04:26:42.546Z,518.60
2023-01-15T04:29:45.838Z,475.30
2023-01-15T04:32:50.212Z,516.65
2023-01-15T04:35:53.462Z,399.88
2023-01-15T04:38:59.941Z,390.38
2023-01-15T04:42:32.141Z,409.70
2023-01-15T04:45:35.358Z,505.27
2023-01-15T04:48:39.678Z,424.80
2023-01-15T04:51:43.109Z,609.28
2023-01-15T04:54:47.939Z,527.85
2023-01-15T04:57:51.190Z,564.97
2023-01-15T05:00:54.443Z,493.05
2023-01-15T05:03:58.332Z,424.58
2023-01-15T05:07:03.256Z,518.95
2023-01-15T05:10:08.563Z,627.30
2023-01-15T05:13:11.856Z,481.83
2023-01-15T05:16:17.358Z,508.75
2023-01-15T05:19:20.654Z,373.38
2023-01-15T05:22:23.858Z,471.08
2023-01-15T05:25:28.547Z,480.83
2023-01-15T05:28:31.816Z,527.83
2023-01-15T05:31:35.006Z,647.15
2023-01-15T05:34:39.561Z,632.75
2023-01-15T05:37:42.779Z,478.85
2023-01-15T05:40:47.453Z,523.33
2023-01-15T05:43:50.710Z,620.72
2023-01-15T05:46:55.862Z,606.88
2023-01-15T05:49:59.182Z,500.05
2023-01-15T05:53:02.474Z,571.28
2023-01-15T05:56:07.920Z,640.58
2023-01-15T05:59:11.303Z,583.20
2023-01-15T06:02:14.573Z,437.02
2023-01-15T06:05:20.307Z,441.23
2023-01-15T06:08:24.215Z,607.70
2023-01-15T06:11:30.664Z,484.15
2023-01-15T06:14:33.871Z,426.25
2023-01-15T06:17:37.170Z,483.52
2023-01-15T06:20:41.086Z,406.67
2023-01-15T06:23:45.509Z,497.50
2023-01-15T06:26:50.189Z,372.08
2023-01-15T06:29:53.882Z,489.70
2023-01-15T06:32:57.132Z,573.90
2023-01-15T06:36:03.397Z,493.17
2023-01-15T06:39:06.607Z,424.83
2023-01-15T06:42:30.096Z,487.48
2023-01-15T06:45:55.814Z,397.27
2023-01-15T06:48:59.241Z,385.48
2023-01-15T06:52:03.166Z,433.75
2023-01-15T06:55:07.155Z,413.75
2023-01-15T06:58:11.807Z,362.08
2023-01-15T07:01:16.646Z,338.48
2023-01-15T07:04:20.205Z,386.10
2023-01-15T07:07:23.849Z,412.73
2023-01-15T07:10:27.216Z,504.98
2023-01-15T07:13:32.056Z,720.63
2023-01-15T07:16:36.053Z,519.17
2023-01-15T07:19:40.682Z,534.67
2023-01-15T07:22:45.653Z,271.77
2023-01-15T07:25:48.930Z,352.05
2023-01-15T07:28:53.635Z,510.20
2023-01-15T07:31:57.624Z,291.10
2023-01-15T07:35:00.914Z,570.92
2023-01-15T07:38:05.822Z,297.85
2023-01-15T07:41:27.960Z,309.45
2023-01-15T07:44:49.999Z,340.13
2023-01-15T07:48:12.226Z,277.23
2023-01-15T07:51:15.936Z,466.20
2023-01-15T07:54:19.981Z,386.20
2023-01-15T07:57:25.552Z,212.45
2023-01-15T08:00:30.309Z,268.15
2023-01-15T08:03:33.584Z,227.82
2023-01-15T08:06:36.898Z,201.18
2023-01-15T08:09:40.118Z,255.27
2023-01-15T08:13:00.718Z,330.02
2023-01-15T08:16:05.610Z,177.95
2023-01-15T08:19:08.839Z,249.02
2023-01-15T08:22:13.081Z,228.30
2023-01-15T08:25:18.459Z,429.92
2023-01-15T08:28:21.769Z,352.33
2023-01-15T08:31:26.747Z,178.65
2023-01-15T08:34:30.148Z,255.20
2023-01-15T08:37:33.377Z,393.88
2023-01-15T08:40:57.603Z,310.92
2023-01-15T08:44:01.511Z,316.55
2023-01-15T08:47:06.433Z,300.73
2023-01-15T08:50:11.132Z,315.38
2023-01-15T08:53:14.525Z,310.67
2023-01-15T08:56:19.569Z,284.80
2023-01-15T08:59:23.024Z,371.02
2023-01-15T09:02:29.462Z,235.48
2023-01-15T09:05:33.754Z,183.15
2023-01-15T09:08:37.041Z,282.27
2023-01-15T09:11:41.501Z,235.88
2023-01-15T09:14:59.355Z,170.35
2023-01-15T09:18:10.661Z,211.23
2023-01-15T09:21:13.894Z,192.80
2023-01-15T09:24:17.245Z,149.27
2023-01-15T09:27:20.672Z,193.20
2023-01-15T09:30:24.602Z,259.80
2023-01-15T09:33:29.408Z,331.50
2023-01-15T09:36:34.413Z,400.73
2023-01-15T09:39:39.009Z,174.07
2023-01-15T09:42:49.628Z,491.27
2023-01-15T09:45:59.386Z,162.77
2023-01-15T09:49:16.805Z,168.23
2023-01-15T09:52:32.197Z,430.73
2023-01-15T09:55:42.048Z,327.60
2023-01-15T09:58:45.628Z,180.35
2023-01-15T10:01:53.318Z,154.43
2023-01-15T10:05:04.677Z,141.68
2023-01-15T10:08:14.472Z,237.30
2023-01-15T10:11:53.383Z,298.90
2023-01-15T10:15:03.649Z,203.65
2023-01-15T10:21:24.316Z,269.83
2023-01-15T10:24:37.049Z,189.23
2023-01-15T10:27:46.914Z,639.75
2023-01-15T10:30:55.384Z,107.70
2023-01-15T10:34:11.534Z,214.82
2023-01-15T10:37:25.188Z,178.20
2023-01-15T10:40:52.269Z,442.77
2023-01-15T10:44:01.709Z,153.90
2023-01-15T10:47:13.703Z,300.55
2023-01-15T10:50:20.116Z,400.83
2023-01-15T10:53:32.366Z,201.75
2023-01-15T10:56:42.152Z,192.45
2023-01-15T10:59:51.265Z,131.00
2023-01-15T11:03:03.181Z,498.25
2023-01-15T11:06:12.851Z,263.13
2023-01-15T11:09:23.393Z,104.30
2023-01-15T11:12:47.395Z,114.10
2023-01-15T11:16:08.767Z,292.42
2023-01-15T11:19:40.491Z,202.23
2023-01-15T11:22:45.006Z,321.23
2023-01-15T11:25:55.790Z,306.65
2023-01-15T11:29:01.610Z,110.43
2023-01-15T11:32:05.481Z,110.47
2023-01-15T11:35:17.994Z,157.25
2023-01-15T11:38:23.144Z,115.32
2023-01-15T11:41:51.635Z,164.75
2023-01-15T11:45:19.632Z,135.60
2023-01-15T11:48:42.094Z,169.90
2023-01-15T11:51:49.971Z,407.58
2023-01-15T11:54:56.487Z,271.40
2023-01-15T11:58:03.106Z,320.75
2023-01-15T12:01:06.775Z,299.02
2023-01-15T12:04:27.424Z,482.50
2023-01-15T12:07:31.255Z,190.20
2023-01-15T12:11:00.948Z,157.07
2023-01-15T12:14:45.558Z,90.75
2023-01-15T12:18:21.516Z,581.67
2023-01-15T12:22:04.843Z,113.43
2023-01-15T12:25:32.000Z,123.70
2023-01-15T12:28:39.157Z,147.38
2023-01-15T12:31:50.402Z,144.93
2023-01-15T12:34:58.906Z,293.77
2023-01-15T12:38:14.807Z,410.58
2023-01-15T12:41:24.113Z,128.43
2023-01-15T12:44:55.017Z,103.47
2023-01-15T12:48:06.571Z,323.50
2023-01-15T12:51:14.664Z,375.15
2023-01-15T12:54:25.249Z,578.13
2023-01-15T12:57:34.811Z,508.20
2023-01-15T13:00:42.889Z,413.10
2023-01-15T13:04:12.241Z,672.15
2023-01-15T13:07:23.145Z,475.92
2023-01-15T13:10:28.572Z,497.20
2023-01-15T13:13:34.317Z,584.08
2023-01-15T13:16:46.374Z,615.55
2023-01-15T13:20:04.659Z,652.20
2023-01-15T13:23:19.152Z,438.70
2023-01-15T13:26:42.034Z,401.40
2023-01-15T13:29:58.187Z,526.92
2023-01-15T13:33:13.942Z,526.40
2023-01-15T13:36:25.892Z,474.23
2023-01-15T13:39:39.112Z,679.47
2023-01-15T13:42:49.601Z,542.50
2023-01-15T13:48:56.390Z,556.75
2023-01-15T13:52:04.301Z,590.80
2023-01-15T13:55:14.260Z,619.42
2023-01-15T13:58:27.164Z,799.30
2023-01-15T14:01:35.468Z,873.85
2023-01-15T14:04:40.892Z,926.75
2023-01-15T14:07:45.568Z,854.83
2023-01-15T14:10:49.881Z,850.38
2023-01-15T14:14:10.603Z,921.40
2023-01-15T14:17:57.541Z,906.00
2023-01-15T14:21:20.939Z,983.70
2023-01-15T14:24:57.691Z,905.72
2023-01-15T14:28:25.287Z,872.70
2023-01-15T14:31:51.094Z,810.35
2023-01-15T14:34:59.470Z,787.35
2023-01-15T14:38:07.521Z,888.90
2023-01-15T14:41:13.771Z,983.25
2023-01-15T14:44:17.304Z,893.85
2023-01-15T14:47:32.002Z,748.38
2023-01-15T14:50:39.436Z,937.30
2023-01-15T14:53:46.278Z,973.63
2023-01-15T14:56:53.155Z,980.05
2023-01-15T15:00:00.853Z,883.45
2023-01-15T15:03:14.811Z,868.55
2023-01-15T15:06:19.245Z,893.20
2023-01-15T15:09:34.682Z,815.33
2023-01-15T15:12:44.837Z,998.83
2023-01-15T15:15:54.806Z,963.92
2023-01-15T15:19:03.230Z,900.33
2023-01-15T15:22:11.851Z,999.90
2023-01-15T15:25:22.491Z,892.22
2023-01-15T15:28:27.769Z,955.50
2023-01-15T15:31:37.680Z,999.90
2023-01-15T15:34:47.027Z,999.90
2023-01-15T15:37:51.475Z,999.90
2023-01-15T15:40:59.004Z,999.90
2023-01-15T15:44:22.166Z,995.03
2023-01-15T15:47:45.033Z,957.38
2023-01-15T15:50:49.674Z,998.80
2023-01-15T15:54:03.470Z,999.90
2023-01-15T15:57:10.085Z,999.90
2023-01-15T16:00:20.767Z,974.70
2023-01-15T16:03:27.112Z,976.15
2023-01-15T16:06:30.902Z,999.90
2023-01-15T16:09:35.151Z,999.90
2023-01-15T16:12:44.052Z,999.90
2023-01-15T16:15:55.903Z,981.67
2023-01-15T16:19:01.408Z,999.90
2023-01-15T16:22:07.662Z,999.90
2023-01-15T16:25:23.464Z,968.97
2023-01-15T16:28:31.051Z,999.90
2023-01-15T16:31:37.383Z,995.67
2023-01-15T16:34:41.637Z,988.63
2023-01-15T16:37:48.833Z,999.90
2023-01-15T16:40:52.462Z,999.90
2023-01-15T16:43:57.944Z,999.90
2023-01-15T16:47:04.016Z,999.90
2023-01-15T16:50:29.831Z,955.97
2023-01-15T16:53:39.971Z,933.60
2023-01-15T16:56:57.540Z,999.90
2023-01-15T17:00:07.122Z,999.90
2023-01-15T17:03:14.805Z,827.47
2023-01-15T17:06:23.435Z,999.90
2023-01-15T17:09:27.667Z,982.30
2023-01-15T17:12:34.823Z,999.90
2023-01-15T17:15:40.670Z,999.90
2023-01-15T17:18:46.070Z,999.90
2023-01-15T17:21:49.341Z,999.90
2023-01-15T17:24:55.525Z,999.90
2023-01-15T17:28:00.151Z,999.90
2023-01-15T17:31:04.307Z,999.90
2023-01-15T17:34:09.079Z,999.78
2023-01-15T17:37:12.902Z,999.90
2023-01-15T17:40:16.445Z,993.13
2023-01-15T17:43:19.901Z,985.08
2023-01-15T17:46:24.506Z,963.67
2023-01-15T17:49:29.423Z,999.90
2023-01-15T17:52:32.786Z,999.90
2023-01-15T17:55:54.161Z,999.90
2023-01-15T17:59:14.827Z,969.92
2023-01-15T18:02:36.020Z,977.63
2023-01-15T18:05:41.416Z,999.90
2023-01-15T18:08:48.765Z,993.47
2023-01-15T18:11:52.204Z,989.03
2023-01-15T18:14:55.730Z,999.90
2023-01-15T18:17:59.152Z,999.90
2023-01-15T18:21:04.554Z,930.67
2023-01-15T18:24:09.574Z,999.90
2023-01-15T18:27:13.569Z,936.70
2023-01-15T18:30:19.557Z,951.28
2023-01-15T18:33:22.917Z,858.97
2023-01-15T18:36:29.270Z,945.30
2023-01-15T18:39:35.174Z,957.67
2023-01-15T18:42:57.753Z,860.58
2023-01-15T18:46:18.611Z,999.90
2023-01-15T18:49:22.520Z,972.20
2023-01-15T18:52:45.110Z,917.67
2023-01-15T18:55:48.578Z,958.90
2023-01-15T18:58:51.991Z,999.90
2023-01-15T19:01:56.363Z,966.17
2023-01-15T19:05:00.771Z,959.70
2023-01-15T19:08:05.783Z,967.00
2023-01-15T19:11:14.728Z,999.90
2023-01-15T19:14:35.709Z,947.38
2023-01-15T19:17:57.093Z,924.70
2023-01-15T19:21:01.212Z,900.95
2023-01-15T19:24:07.113Z,849.75
2023-01-15T19:27:10.912Z,709.20
2023-01-15T19:30:15.832Z,868.95
2023-01-15T19:33:19.761Z,862.00
2023-01-15T19:36:23.399Z,778.92
2023-01-15T19:39:28.930Z,914.50
2023-01-15T19:42:49.816Z,917.28
2023-01-15T19:46:10.259Z,951.58
2023-01-15T19:52:41.746Z,965.30
2023-01-15T19:55:47.421Z,952.40
2023-01-15T19:58:50.929Z,999.90
2023-01-15T20:01:55.633Z,965.58
2023-01-15T20:05:02.251Z,999.90
2023-01-15T20:08:09.556Z,994.30
2023-01-15T20:11:15.855Z,925.85
2023-01-15T20:14:19.388Z,974.45
2023-01-15T20:17:23.105Z,945.50
2023-01-15T20:20:27.623Z,947.25
2023-01-15T20:23:31.297Z,951.00
2023-01-15T20:26:39.552Z,958.45
2023-01-15T20:29:45.718Z,971.15
2023-01-15T20:32:50.257Z,937.97
2023-01-15T20:35:55.074Z,941.63
2023-01-15T20:39:00.306Z,968.50
2023-01-15T20:42:19.242Z,948.10
2023-01-15T20:45:22.870Z,956.40
2023-01-15T20:48:43.837Z,971.35
2023-01-15T20:51:48.173Z,942.22
2023-01-15T20:54:51.746Z,955.08
2023-01-15T20:57:57.388Z,948.50
2023-01-15T21:01:06.895Z,980.03
2023-01-15T21:04:13.918Z,740.88
2023-01-15T21:07:17.461Z,920.17
2023-01-15T21:10:23.043Z,951.80
2023-01-15T21:13:27.964Z,999.90
2023-01-15T21:16:31.532Z,984.42
2023-01-15T21:19:34.851Z,977.22
2023-01-15T21:22:38.387Z,983.95
2023-01-15T21:25:41.766Z,973.22
2023-01-15T21:28:46.621Z,999.90
2023-01-15T21:31:49.883Z,999.90
2023-01-15T21:34:53.241Z,999.90
2023-01-15T21:37:56.469Z,951.95
2023-01-15T21:40:59.796Z,981.20
2023-01-15T21:44:24.436Z,973.72
2023-01-15T21:47:27.828Z,971.58
2023-01-15T21:50:31.126Z,952.20
2023-01-15T21:53:34.460Z,981.03
2023-01-15T21:56:39.534Z,981.47
2023-01-15T21:59:44.141Z,963.15
2023-01-15T22:02:47.486Z,969.88
2023-01-15T22:05:50.757Z,965.03
2023-01-15T22:08:55.304Z,986.92
2023-01-15T22:11:58.662Z,973.53
2023-01-15T22:15:03.412Z,971.38
2023-01-15T22:18:06.871Z,992.03
2023-01-15T22:21:15.355Z,999.90
2023-01-15T22:24:19.699Z,999.90
2023-01-15T22:27:23.091Z,992.70
2023-01-15T22:30:27.817Z,982.28
2023-01-15T22:33:31.238Z,999.90
2023-01-15T22:36:34.561Z,958.05
2023-01-15T22:39:37.829Z,984.67
2023-01-15T22:42:41.142Z,960.20
2023-01-15T22:45:45.823Z,999.90
2023-01-15T22:48:49.085Z,999.90
2023-01-15T22:51:53.191Z,977.00
2023-01-15T22:54:56.463Z,952.05
2023-01-15T22:57:59.781Z,999.90
2023-01-15T23:01:05.119Z,999.90
2023-01-15T23:04:13.144Z,989.40
2023-01-15T23:07:16.431Z,999.90
2023-01-15T23:10:19.808Z,998.05
2023-01-15T23:13:23.132Z,962.70
2023-01-15T23:16:27.944Z,999.90
2023-01-15T23:19:31.306Z,992.25
2023-01-15T23:22:34.616Z,983.58
2023-01-15T23:25:37.925Z,999.90
2023-01-15T23:28:41.671Z,999.90
2023-01-15T23:31:46.316Z,986.90
2023-01-15T23:34:49.613Z,999.90
2023-01-15T23:37:53.000Z,999.90
2023-01-15T23:40:57.247Z,976.33
2023-01-15T23:44:17.817Z,999.90
2023-01-15T23:47:22.693Z,999.53
2023-01-15T23:50:26.123Z,997.42
2023-01-15T23:53:29.486Z,998.55
2023-01-15T23:56:33.974Z,999.28
2023-01-15T23:59:37.686Z,997.22
